sensor_id;sensor_type;location;lat;lon;timestamp;P1;durP1;ratioP1;P2;durP2;ratioP2
66523;SDS011;53350;52.210;5.160;2023-02-02T00:01:51;17.83;;;2.70;;
66523;SDS011;53350;52.210;5.160;2023-02-02T00:04:20;22.13;;;2.67;;
66523;SDS011;53350;52.210;5.160;2023-02-02T00:06:47;20.33;;;3.30;;
66523;SDS011;53350;52.210;5.160;2023-02-02T00:09:16;13.02;;;2.47;;
66523;SDS011;53350;52.210;5.160;2023-02-02T00:11:44;19.10;;;2.97;;
66523;SDS011;53350;52.210;5.160;2023-02-02T00:14:12;17.08;;;2.95;;
66523;SDS011;53350;52.210;5.160;2023-02-02T00:16:42;25.52;;;3.70;;
66523;SDS011;53350;52.210;5.160;2023-02-02T00:19:10;14.80;;;2.40;;
66523;SDS011;53350;52.210;5.160;2023-02-02T00:21:38;22.65;;;3.13;;
66523;SDS011;53350;52.210;5.160;2023-02-02T00:24:05;22.90;;;2.83;;
66523;SDS011;53350;52.210;5.160;2023-02-02T00:26:33;20.13;;;2.53;;
66523;SDS011;53350;52.210;5.160;2023-02-02T00:31:27;17.90;;;3.35;;
66523;SDS011;53350;52.210;5.160;2023-02-02T00:33:53;11.68;;;2.53;;
66523;SDS011;53350;52.210;5.160;2023-02-02T00:36:20;23.88;;;2.92;;
66523;SDS011;53350;52.210;5.160;2023-02-02T00:38:47;20.88;;;3.13;;
66523;SDS011;53350;52.210;5.160;2023-02-02T00:41:14;21.83;;;3.58;;
66523;SDS011;53350;52.210;5.160;2023-02-02T00:43:42;22.88;;;3.28;;
66523;SDS011;53350;52.210;5.160;2023-02-02T00:46:09;19.33;;;3.65;;
66523;SDS011;53350;52.210;5.160;2023-02-02T00:48:37;15.43;;;3.03;;
66523;SDS011;53350;52.210;5.160;2023-02-02T00:51:04;23.23;;;3.22;;
66523;SDS011;53350;52.210;5.160;2023-02-02T00:53:30;19.02;;;2.70;;
66523;SDS011;53350;52.210;5.160;2023-02-02T00:55:57;15.52;;;3.05;;
66523;SDS011;53350;52.210;5.160;2023-02-02T00:58:23;14.98;;;1.90;;
66523;SDS011;53350;52.210;5.160;2023-02-02T01:00:51;9.93;;;1.65;;
66523;SDS011;53350;52.210;5.160;2023-02-02T01:03:18;9.65;;;1.25;;
66523;SDS011;53350;52.210;5.160;2023-02-02T01:05:44;12.75;;;1.60;;
66523;SDS011;53350;52.210;5.160;2023-02-02T01:08:10;12.02;;;1.58;;
66523;SDS011;53350;52.210;5.160;2023-02-02T01:10:37;8.27;;;1.35;;
66523;SDS011;53350;52.210;5.160;2023-02-02T01:13:03;10.32;;;1.40;;
66523;SDS011;53350;52.210;5.160;2023-02-02T01:15:30;8.32;;;1.00;;
66523;SDS011;53350;52.210;5.160;2023-02-02T01:17:57;8.27;;;1.17;;
66523;SDS011;53350;52.210;5.160;2023-02-02T01:20:24;13.05;;;2.25;;
66523;SDS011;53350;52.210;5.160;2023-02-02T01:22:50;7.53;;;1.25;;
66523;SDS011;53350;52.210;5.160;2023-02-02T01:25:17;9.90;;;1.75;;
66523;SDS011;53350;52.210;5.160;2023-02-02T01:27:43;4.97;;;1.02;;
66523;SDS011;53350;52.210;5.160;2023-02-02T01:30:10;4.45;;;0.80;;
66523;SDS011;53350;52.210;5.160;2023-02-02T01:32:37;6.57;;;1.00;;
66523;SDS011;53350;52.210;5.160;2023-02-02T01:35:05;7.20;;;1.23;;
66523;SDS011;53350;52.210;5.160;2023-02-02T01:37:32;4.55;;;0.90;;
66523;SDS011;53350;52.210;5.160;2023-02-02T01:39:58;5.50;;;0.90;;
66523;SDS011;53350;52.210;5.160;2023-02-02T01:42:24;6.43;;;1.10;;
66523;SDS011;53350;52.210;5.160;2023-02-02T01:45:06;8.98;;;1.13;;
66523;SDS011;53350;52.210;5.160;2023-02-02T01:47:42;5.95;;;0.90;;
66523;SDS011;53350;52.210;5.160;2023-02-02T01:50:14;7.43;;;1.10;;
66523;SDS011;53350;52.210;5.160;2023-02-02T01:52:42;4.68;;;1.00;;
66523;SDS011;53350;52.210;5.160;2023-02-02T01:55:12;10.25;;;1.65;;
66523;SDS011;53350;52.210;5.160;2023-02-02T01:57:41;7.82;;;1.42;;
66523;SDS011;53350;52.210;5.160;2023-02-02T02:00:11;6.78;;;1.67;;
66523;SDS011;53350;52.210;5.160;2023-02-02T02:02:40;8.60;;;1.55;;
66523;SDS011;53350;52.210;5.160;2023-02-02T02:05:10;10.05;;;1.73;;
66523;SDS011;53350;52.210;5.160;2023-02-02T02:07:40;13.52;;;1.70;;
66523;SDS011;53350;52.210;5.160;2023-02-02T02:10:09;9.50;;;1.60;;
66523;SDS011;53350;52.210;5.160;2023-02-02T02:12:36;9.13;;;1.75;;
66523;SDS011;53350;52.210;5.160;2023-02-02T02:15:02;14.25;;;2.17;;
66523;SDS011;53350;52.210;5.160;2023-02-02T02:17:54;13.88;;;2.50;;
66523;SDS011;53350;52.210;5.160;2023-02-02T02:20:37;12.50;;;2.22;;
66523;SDS011;53350;52.210;5.160;2023-02-02T02:27:02;14.15;;;3.15;;
66523;SDS011;53350;52.210;5.160;2023-02-02T02:32:56;8.00;;;2.25;;
66523;SDS011;53350;52.210;5.160;2023-02-02T02:35:29;15.68;;;2.40;;
66523;SDS011;53350;52.210;5.160;2023-02-02T02:38:03;20.23;;;3.42;;
66523;SDS011;53350;52.210;5.160;2023-02-02T02:40:35;17.88;;;2.70;;
66523;SDS011;53350;52.210;5.160;2023-02-02T02:43:05;21.90;;;3.05;;
66523;SDS011;53350;52.210;5.160;2023-02-02T02:45:39;19.10;;;2.53;;
66523;SDS011;53350;52.210;5.160;2023-02-02T02:48:10;8.50;;;1.38;;
66523;SDS011;53350;52.210;5.160;2023-02-02T02:53:04;15.50;;;2.80;;
66523;SDS011;53350;52.210;5.160;2023-02-02T02:55:35;16.42;;;2.92;;
66523;SDS011;53350;52.210;5.160;2023-02-02T02:58:10;27.63;;;3.70;;
66523;SDS011;53350;52.210;5.160;2023-02-02T03:00:43;20.90;;;3.30;;
66523;SDS011;53350;52.210;5.160;2023-02-02T03:03:18;18.38;;;2.53;;
66523;SDS011;53350;52.210;5.160;2023-02-02T03:05:52;14.50;;;2.45;;
66523;SDS011;53350;52.210;5.160;2023-02-02T03:08:22;19.38;;;2.92;;
66523;SDS011;53350;52.210;5.160;2023-02-02T03:10:53;23.27;;;3.33;;
66523;SDS011;53350;52.210;5.160;2023-02-02T03:13:21;19.85;;;2.90;;
66523;SDS011;53350;52.210;5.160;2023-02-02T03:15:48;15.02;;;2.38;;
66523;SDS011;53350;52.210;5.160;2023-02-02T03:18:16;18.15;;;3.50;;
66523;SDS011;53350;52.210;5.160;2023-02-02T03:20:45;18.15;;;2.58;;
66523;SDS011;53350;52.210;5.160;2023-02-02T03:23:12;17.90;;;2.45;;
66523;SDS011;53350;52.210;5.160;2023-02-02T03:25:39;18.52;;;2.35;;
66523;SDS011;53350;52.210;5.160;2023-02-02T03:28:06;12.70;;;2.28;;
66523;SDS011;53350;52.210;5.160;2023-02-02T03:30:32;23.30;;;3.47;;
66523;SDS011;53350;52.210;5.160;2023-02-02T03:32:59;26.73;;;3.65;;
66523;SDS011;53350;52.210;5.160;2023-02-02T03:35:27;20.30;;;2.85;;
66523;SDS011;53350;52.210;5.160;2023-02-02T03:37:53;20.33;;;3.35;;
66523;SDS011;53350;52.210;5.160;2023-02-02T03:40:20;16.52;;;3.95;;
66523;SDS011;53350;52.210;5.160;2023-02-02T03:42:46;24.13;;;3.22;;
66523;SDS011;53350;52.210;5.160;2023-02-02T03:45:13;13.35;;;1.73;;
66523;SDS011;53350;52.210;5.160;2023-02-02T03:47:39;10.07;;;2.40;;
66523;SDS011;53350;52.210;5.160;2023-02-02T03:50:06;22.65;;;3.03;;
66523;SDS011;53350;52.210;5.160;2023-02-02T03:52:35;17.55;;;2.50;;
66523;SDS011;53350;52.210;5.160;2023-02-02T03:55:02;19.70;;;2.95;;
66523;SDS011;53350;52.210;5.160;2023-02-02T03:57:29;19.88;;;3.30;;
66523;SDS011;53350;52.210;5.160;2023-02-02T03:59:55;17.38;;;2.75;;
66523;SDS011;53350;52.210;5.160;2023-02-02T04:02:22;22.50;;;3.22;;
66523;SDS011;53350;52.210;5.160;2023-02-02T04:04:48;22.88;;;2.75;;
66523;SDS011;53350;52.210;5.160;2023-02-02T04:07:15;14.52;;;2.30;;
66523;SDS011;53350;52.210;5.160;2023-02-02T04:09:42;18.58;;;2.65;;
66523;SDS011;53350;52.210;5.160;2023-02-02T04:12:09;18.45;;;2.75;;
66523;SDS011;53350;52.210;5.160;2023-02-02T04:14:35;16.63;;;2.70;;
66523;SDS011;53350;52.210;5.160;2023-02-02T04:17:02;13.80;;;2.08;;
66523;SDS011;53350;52.210;5.160;2023-02-02T04:19:28;18.33;;;3.15;;
66523;SDS011;53350;52.210;5.160;2023-02-02T04:21:55;10.85;;;2.30;;
66523;SDS011;53350;52.210;5.160;2023-02-02T04:24:21;14.27;;;2.20;;
66523;SDS011;53350;52.210;5.160;2023-02-02T04:26:49;19.27;;;2.78;;
66523;SDS011;53350;52.210;5.160;2023-02-02T04:29:15;11.95;;;2.55;;
66523;SDS011;53350;52.210;5.160;2023-02-02T04:31:41;12.95;;;2.15;;
66523;SDS011;53350;52.210;5.160;2023-02-02T04:34:08;23.05;;;2.33;;
66523;SDS011;53350;52.210;5.160;2023-02-02T04:36:34;16.80;;;2.83;;
66523;SDS011;53350;52.210;5.160;2023-02-02T04:39:01;14.02;;;2.63;;
66523;SDS011;53350;52.210;5.160;2023-02-02T04:41:27;12.60;;;2.30;;
66523;SDS011;53350;52.210;5.160;2023-02-02T04:43:55;12.38;;;2.53;;
66523;SDS011;53350;52.210;5.160;2023-02-02T04:46:21;11.85;;;2.40;;
66523;SDS011;53350;52.210;5.160;2023-02-02T04:48:48;15.48;;;2.50;;
66523;SDS011;53350;52.210;5.160;2023-02-02T04:51:14;19.25;;;2.40;;
66523;SDS011;53350;52.210;5.160;2023-02-02T04:53:42;17.85;;;1.98;;
66523;SDS011;53350;52.210;5.160;2023-02-02T04:56:11;14.88;;;2.78;;
66523;SDS011;53350;52.210;5.160;2023-02-02T04:58:38;14.48;;;2.15;;
66523;SDS011;53350;52.210;5.160;2023-02-02T05:01:08;24.77;;;2.55;;
66523;SDS011;53350;52.210;5.160;2023-02-02T05:03:35;24.40;;;3.55;;
66523;SDS011;53350;52.210;5.160;2023-02-02T05:06:01;10.77;;;2.50;;
66523;SDS011;53350;52.210;5.160;2023-02-02T05:08:29;17.38;;;2.40;;
66523;SDS011;53350;52.210;5.160;2023-02-02T05:10:55;15.48;;;2.17;;
66523;SDS011;53350;52.210;5.160;2023-02-02T05:13:22;18.83;;;2.72;;
66523;SDS011;53350;52.210;5.160;2023-02-02T05:15:48;18.98;;;2.90;;
66523;SDS011;53350;52.210;5.160;2023-02-02T05:18:16;20.95;;;3.28;;
66523;SDS011;53350;52.210;5.160;2023-02-02T05:20:42;13.00;;;2.33;;
66523;SDS011;53350;52.210;5.160;2023-02-02T05:23:08;21.70;;;3.42;;
66523;SDS011;53350;52.210;5.160;2023-02-02T05:25:35;20.38;;;2.85;;
66523;SDS011;53350;52.210;5.160;2023-02-02T05:28:01;15.00;;;3.00;;
66523;SDS011;53350;52.210;5.160;2023-02-02T05:30:28;23.40;;;3.65;;
66523;SDS011;53350;52.210;5.160;2023-02-02T05:32:54;17.63;;;2.85;;
66523;SDS011;53350;52.210;5.160;2023-02-02T05:35:22;16.58;;;2.97;;
66523;SDS011;53350;52.210;5.160;2023-02-02T05:37:48;12.27;;;1.77;;
66523;SDS011;53350;52.210;5.160;2023-02-02T05:40:15;16.50;;;2.17;;
66523;SDS011;53350;52.210;5.160;2023-02-02T05:42:41;12.77;;;1.73;;
66523;SDS011;53350;52.210;5.160;2023-02-02T05:45:08;12.23;;;2.88;;
66523;SDS011;53350;52.210;5.160;2023-02-02T05:47:35;15.80;;;2.60;;
66523;SDS011;53350;52.210;5.160;2023-02-02T05:50:02;14.82;;;2.38;;
66523;SDS011;53350;52.210;5.160;2023-02-02T05:52:30;13.75;;;2.50;;
66523;SDS011;53350;52.210;5.160;2023-02-02T05:54:59;21.65;;;2.95;;
66523;SDS011;53350;52.210;5.160;2023-02-02T05:57:25;25.10;;;3.33;;
66523;SDS011;53350;52.210;5.160;2023-02-02T05:59:52;11.95;;;2.00;;
66523;SDS011;53350;52.210;5.160;2023-02-02T06:02:18;21.00;;;3.30;;
66523;SDS011;53350;52.210;5.160;2023-02-02T06:04:45;19.60;;;2.70;;
66523;SDS011;53350;52.210;5.160;2023-02-02T06:07:11;16.38;;;1.92;;
66523;SDS011;53350;52.210;5.160;2023-02-02T06:09:39;14.80;;;2.60;;
66523;SDS011;53350;52.210;5.160;2023-02-02T06:12:06;10.55;;;2.00;;
66523;SDS011;53350;52.210;5.160;2023-02-02T06:14:32;14.75;;;2.08;;
66523;SDS011;53350;52.210;5.160;2023-02-02T06:16:59;17.52;;;2.85;;
66523;SDS011;53350;52.210;5.160;2023-02-02T06:19:25;15.65;;;2.30;;
66523;SDS011;53350;52.210;5.160;2023-02-02T06:21:52;15.15;;;2.50;;
66523;SDS011;53350;52.210;5.160;2023-02-02T06:24:18;15.10;;;2.33;;
66523;SDS011;53350;52.210;5.160;2023-02-02T06:26:46;20.85;;;2.22;;
66523;SDS011;53350;52.210;5.160;2023-02-02T06:29:12;9.27;;;1.50;;
66523;SDS011;53350;52.210;5.160;2023-02-02T06:31:39;16.23;;;2.95;;
66523;SDS011;53350;52.210;5.160;2023-02-02T06:34:05;7.95;;;1.70;;
66523;SDS011;53350;52.210;5.160;2023-02-02T06:36:32;13.80;;;2.53;;
66523;SDS011;53350;52.210;5.160;2023-02-02T06:38:58;18.83;;;3.55;;
66523;SDS011;53350;52.210;5.160;2023-02-02T06:41:26;10.77;;;2.13;;
66523;SDS011;53350;52.210;5.160;2023-02-02T06:43:54;15.90;;;2.95;;
66523;SDS011;53350;52.210;5.160;2023-02-02T06:46:20;12.68;;;2.17;;
66523;SDS011;53350;52.210;5.160;2023-02-02T06:48:46;14.95;;;2.20;;
66523;SDS011;53350;52.210;5.160;2023-02-02T06:51:13;16.50;;;2.38;;
66523;SDS011;53350;52.210;5.160;2023-02-02T06:53:39;14.43;;;2.72;;
66523;SDS011;53350;52.210;5.160;2023-02-02T06:56:06;19.65;;;2.55;;
66523;SDS011;53350;52.210;5.160;2023-02-02T06:58:36;22.60;;;3.10;;
66523;SDS011;53350;52.210;5.160;2023-02-02T07:01:05;16.85;;;3.50;;
66523;SDS011;53350;52.210;5.160;2023-02-02T07:03:33;12.85;;;2.10;;
66523;SDS011;53350;52.210;5.160;2023-02-02T07:06:08;17.30;;;2.83;;
66523;SDS011;53350;52.210;5.160;2023-02-02T07:08:36;13.07;;;2.25;;
66523;SDS011;53350;52.210;5.160;2023-02-02T07:11:03;11.20;;;1.95;;
66523;SDS011;53350;52.210;5.160;2023-02-02T07:13:29;17.75;;;2.75;;
66523;SDS011;53350;52.210;5.160;2023-02-02T07:15:56;9.70;;;2.00;;
66523;SDS011;53350;52.210;5.160;2023-02-02T07:18:23;14.20;;;2.45;;
66523;SDS011;53350;52.210;5.160;2023-02-02T07:20:50;21.75;;;3.33;;
66523;SDS011;53350;52.210;5.160;2023-02-02T07:23:16;8.13;;;1.85;;
66523;SDS011;53350;52.210;5.160;2023-02-02T07:25:43;15.27;;;2.33;;
66523;SDS011;53350;52.210;5.160;2023-02-02T07:28:09;13.73;;;2.38;;
66523;SDS011;53350;52.210;5.160;2023-02-02T07:30:36;19.25;;;2.90;;
66523;SDS011;53350;52.210;5.160;2023-02-02T07:33:02;13.05;;;2.47;;
66523;SDS011;53350;52.210;5.160;2023-02-02T07:35:30;14.85;;;2.33;;
66523;SDS011;53350;52.210;5.160;2023-02-02T07:37:56;12.85;;;2.47;;
66523;SDS011;53350;52.210;5.160;2023-02-02T07:40:23;8.95;;;2.08;;
66523;SDS011;53350;52.210;5.160;2023-02-02T07:42:49;13.23;;;2.25;;
66523;SDS011;53350;52.210;5.160;2023-02-02T07:45:15;14.30;;;2.38;;
66523;SDS011;53350;52.210;5.160;2023-02-02T07:47:42;24.95;;;3.28;;
66523;SDS011;53350;52.210;5.160;2023-02-02T07:50:09;18.02;;;2.83;;
66523;SDS011;53350;52.210;5.160;2023-02-02T07:52:37;12.30;;;2.47;;
66523;SDS011;53350;52.210;5.160;2023-02-02T07:55:04;15.55;;;2.72;;
66523;SDS011;53350;52.210;5.160;2023-02-02T07:57:31;8.52;;;1.95;;
66523;SDS011;53350;52.210;5.160;2023-02-02T07:59:57;14.05;;;2.47;;
66523;SDS011;53350;52.210;5.160;2023-02-02T08:02:24;18.17;;;2.60;;
66523;SDS011;53350;52.210;5.160;2023-02-02T08:04:50;15.57;;;2.60;;
66523;SDS011;53350;52.210;5.160;2023-02-02T08:07:16;10.65;;;2.05;;
66523;SDS011;53350;52.210;5.160;2023-02-02T08:12:13;8.50;;;1.90;;
66523;SDS011;53350;52.210;5.160;2023-02-02T08:14:39;15.23;;;2.45;;
66523;SDS011;53350;52.210;5.160;2023-02-02T08:17:06;18.35;;;2.97;;
66523;SDS011;53350;52.210;5.160;2023-02-02T08:19:32;15.38;;;2.70;;
66523;SDS011;53350;52.210;5.160;2023-02-02T08:21:59;22.75;;;3.00;;
66523;SDS011;53350;52.210;5.160;2023-02-02T08:24:25;15.30;;;1.90;;
66523;SDS011;53350;52.210;5.160;2023-02-02T08:26:53;19.55;;;2.90;;
66523;SDS011;53350;52.210;5.160;2023-02-02T08:29:19;18.17;;;2.90;;
66523;SDS011;53350;52.210;5.160;2023-02-02T08:31:46;18.98;;;2.58;;
66523;SDS011;53350;52.210;5.160;2023-02-02T08:34:12;11.88;;;2.47;;
66523;SDS011;53350;52.210;5.160;2023-02-02T08:36:39;17.70;;;2.58;;
66523;SDS011;53350;52.210;5.160;2023-02-02T08:39:07;16.60;;;2.50;;
66523;SDS011;53350;52.210;5.160;2023-02-02T08:41:35;17.67;;;3.28;;
66523;SDS011;53350;52.210;5.160;2023-02-02T08:44:05;13.57;;;2.38;;
66523;SDS011;53350;52.210;5.160;2023-02-02T08:46:31;21.10;;;3.25;;
66523;SDS011;53350;52.210;5.160;2023-02-02T08:48:58;12.93;;;2.10;;
66523;SDS011;53350;52.210;5.160;2023-02-02T08:51:24;16.25;;;2.75;;
66523;SDS011;53350;52.210;5.160;2023-02-02T08:53:51;9.13;;;2.03;;
66523;SDS011;53350;52.210;5.160;2023-02-02T08:56:18;9.63;;;1.88;;
66523;SDS011;53350;52.210;5.160;2023-02-02T08:58:45;19.25;;;3.33;;
66523;SDS011;53350;52.210;5.160;2023-02-02T09:01:14;24.23;;;2.90;;
66523;SDS011;53350;52.210;5.160;2023-02-02T09:03:42;10.75;;;1.77;;
66523;SDS011;53350;52.210;5.160;2023-02-02T09:06:09;16.60;;;2.55;;
66523;SDS011;53350;52.210;5.160;2023-02-02T09:08:37;17.38;;;3.03;;
66523;SDS011;53350;52.210;5.160;2023-02-02T09:11:04;11.57;;;2.25;;
66523;SDS011;53350;52.210;5.160;2023-02-02T09:13:32;15.65;;;3.22;;
66523;SDS011;53350;52.210;5.160;2023-02-02T09:15:59;11.82;;;2.00;;
66523;SDS011;53350;52.210;5.160;2023-02-02T09:18:27;17.60;;;2.80;;
66523;SDS011;53350;52.210;5.160;2023-02-02T09:20:53;21.55;;;3.00;;
66523;SDS011;53350;52.210;5.160;2023-02-02T09:23:20;12.63;;;3.72;;
66523;SDS011;53350;52.210;5.160;2023-02-02T09:25:46;18.60;;;2.50;;
66523;SDS011;53350;52.210;5.160;2023-02-02T09:28:13;10.52;;;1.88;;
66523;SDS011;53350;52.210;5.160;2023-02-02T09:30:39;21.02;;;2.53;;
66523;SDS011;53350;52.210;5.160;2023-02-02T09:33:05;15.23;;;2.40;;
66523;SDS011;53350;52.210;5.160;2023-02-02T09:35:33;21.13;;;2.60;;
66523;SDS011;53350;52.210;5.160;2023-02-02T09:38:00;16.52;;;2.75;;
66523;SDS011;53350;52.210;5.160;2023-02-02T09:40:26;15.55;;;2.85;;
66523;SDS011;53350;52.210;5.160;2023-02-02T09:42:58;14.88;;;2.65;;
66523;SDS011;53350;52.210;5.160;2023-02-02T09:45:33;14.18;;;2.28;;
66523;SDS011;53350;52.210;5.160;2023-02-02T09:48:10;10.27;;;1.45;;
66523;SDS011;53350;52.210;5.160;2023-02-02T09:50:48;17.33;;;2.58;;
66523;SDS011;53350;52.210;5.160;2023-02-02T09:53:19;18.42;;;3.28;;
66523;SDS011;53350;52.210;5.160;2023-02-02T09:55:51;11.05;;;2.05;;
66523;SDS011;53350;52.210;5.160;2023-02-02T09:58:21;18.25;;;2.38;;
66523;SDS011;53350;52.210;5.160;2023-02-02T10:00:52;14.95;;;2.35;;
66523;SDS011;53350;52.210;5.160;2023-02-02T10:03:26;12.70;;;1.70;;
66523;SDS011;53350;52.210;5.160;2023-02-02T10:06:01;10.10;;;2.15;;
66523;SDS011;53350;52.210;5.160;2023-02-02T10:08:37;15.48;;;2.20;;
66523;SDS011;53350;52.210;5.160;2023-02-02T10:11:15;14.73;;;2.85;;
66523;SDS011;53350;52.210;5.160;2023-02-02T10:13:52;11.32;;;2.10;;
66523;SDS011;53350;52.210;5.160;2023-02-02T10:16:23;12.35;;;1.83;;
66523;SDS011;53350;52.210;5.160;2023-02-02T10:18:50;13.63;;;2.63;;
66523;SDS011;53350;52.210;5.160;2023-02-02T10:21:25;17.02;;;2.53;;
66523;SDS011;53350;52.210;5.160;2023-02-02T10:23:54;16.88;;;2.40;;
66523;SDS011;53350;52.210;5.160;2023-02-02T10:26:22;15.57;;;2.17;;
66523;SDS011;53350;52.210;5.160;2023-02-02T10:29:00;17.77;;;2.65;;
66523;SDS011;53350;52.210;5.160;2023-02-02T10:31:39;20.45;;;3.00;;
66523;SDS011;53350;52.210;5.160;2023-02-02T10:34:15;17.10;;;2.47;;
66523;SDS011;53350;52.210;5.160;2023-02-02T10:36:52;14.05;;;2.10;;
66523;SDS011;53350;52.210;5.160;2023-02-02T10:39:29;17.77;;;2.20;;
66523;SDS011;53350;52.210;5.160;2023-02-02T10:42:08;18.52;;;2.33;;
66523;SDS011;53350;52.210;5.160;2023-02-02T10:44:44;14.15;;;1.85;;
66523;SDS011;53350;52.210;5.160;2023-02-02T10:47:15;12.27;;;2.25;;
66523;SDS011;53350;52.210;5.160;2023-02-02T10:49:53;9.85;;;1.67;;
66523;SDS011;53350;52.210;5.160;2023-02-02T10:52:29;18.85;;;2.55;;
66523;SDS011;53350;52.210;5.160;2023-02-02T10:54:58;10.63;;;2.00;;
66523;SDS011;53350;52.210;5.160;2023-02-02T10:57:41;14.05;;;3.00;;
66523;SDS011;53350;52.210;5.160;2023-02-02T11:00:15;19.35;;;2.75;;
66523;SDS011;53350;52.210;5.160;2023-02-02T11:02:49;15.23;;;2.55;;
66523;SDS011;53350;52.210;5.160;2023-02-02T11:05:18;15.23;;;2.20;;
66523;SDS011;53350;52.210;5.160;2023-02-02T11:08:13;17.13;;;2.25;;
66523;SDS011;53350;52.210;5.160;2023-02-02T11:10:41;11.00;;;2.15;;
66523;SDS011;53350;52.210;5.160;2023-02-02T11:13:10;22.77;;;2.33;;
66523;SDS011;53350;52.210;5.160;2023-02-02T11:15:40;12.85;;;1.92;;
66523;SDS011;53350;52.210;5.160;2023-02-02T11:18:13;12.68;;;1.83;;
66523;SDS011;53350;52.210;5.160;2023-02-02T11:20:52;18.73;;;2.17;;
66523;SDS011;53350;52.210;5.160;2023-02-02T11:23:20;8.27;;;1.63;;
66523;SDS011;53350;52.210;5.160;2023-02-02T11:25:55;13.90;;;1.92;;
66523;SDS011;53350;52.210;5.160;2023-02-02T11:28:24;13.88;;;2.05;;
66523;SDS011;53350;52.210;5.160;2023-02-02T11:30:55;16.50;;;2.10;;
66523;SDS011;53350;52.210;5.160;2023-02-02T11:33:25;14.38;;;2.10;;
66523;SDS011;53350;52.210;5.160;2023-02-02T11:35:54;17.08;;;2.50;;
66523;SDS011;53350;52.210;5.160;2023-02-02T11:38:23;12.18;;;1.58;;
66523;SDS011;53350;52.210;5.160;2023-02-02T11:43:23;13.73;;;2.15;;
66523;SDS011;53350;52.210;5.160;2023-02-02T11:45:53;19.15;;;2.95;;
66523;SDS011;53350;52.210;5.160;2023-02-02T11:48:23;13.13;;;2.00;;
66523;SDS011;53350;52.210;5.160;2023-02-02T11:50:54;10.38;;;2.10;;
66523;SDS011;53350;52.210;5.160;2023-02-02T11:53:25;16.58;;;2.00;;
66523;SDS011;53350;52.210;5.160;2023-02-02T11:55:54;15.85;;;1.92;;
66523;SDS011;53350;52.210;5.160;2023-02-02T11:58:23;12.00;;;1.58;;
66523;SDS011;53350;52.210;5.160;2023-02-02T12:00:53;15.65;;;2.70;;
66523;SDS011;53350;52.210;5.160;2023-02-02T12:03:23;10.57;;;2.30;;
66523;SDS011;53350;52.210;5.160;2023-02-02T12:05:51;12.40;;;2.03;;
66523;SDS011;53350;52.210;5.160;2023-02-02T12:08:17;15.55;;;1.98;;
66523;SDS011;53350;52.210;5.160;2023-02-02T12:10:48;15.23;;;2.22;;
66523;SDS011;53350;52.210;5.160;2023-02-02T12:13:22;18.42;;;3.10;;
66523;SDS011;53350;52.210;5.160;2023-02-02T12:16:05;16.75;;;2.17;;
66523;SDS011;53350;52.210;5.160;2023-02-02T12:21:14;14.02;;;1.85;;
66523;SDS011;53350;52.210;5.160;2023-02-02T12:23:50;10.70;;;1.55;;
66523;SDS011;53350;52.210;5.160;2023-02-02T12:26:26;13.55;;;2.45;;
66523;SDS011;53350;52.210;5.160;2023-02-02T12:31:52;15.25;;;2.33;;
66523;SDS011;53350;52.210;5.160;2023-02-02T12:34:31;10.75;;;1.70;;
66523;SDS011;53350;52.210;5.160;2023-02-02T12:37:07;9.88;;;1.67;;
66523;SDS011;53350;52.210;5.160;2023-02-02T12:39:48;8.27;;;1.75;;
66523;SDS011;53350;52.210;5.160;2023-02-02T12:42:38;12.50;;;2.30;;
66523;SDS011;53350;52.210;5.160;2023-02-02T12:45:15;12.80;;;1.93;;
66523;SDS011;53350;52.210;5.160;2023-02-02T12:50:58;18.08;;;2.10;;
66523;SDS011;53350;52.210;5.160;2023-02-02T12:53:38;11.70;;;2.30;;
66523;SDS011;53350;52.210;5.160;2023-02-02T12:56:25;8.35;;;1.02;;
66523;SDS011;53350;52.210;5.160;2023-02-02T12:59:01;10.73;;;1.63;;
66523;SDS011;53350;52.210;5.160;2023-02-02T13:01:41;12.32;;;1.67;;
66523;SDS011;53350;52.210;5.160;2023-02-02T13:04:22;15.10;;;2.20;;
66523;SDS011;53350;52.210;5.160;2023-02-02T13:07:06;15.45;;;2.30;;
66523;SDS011;53350;52.210;5.160;2023-02-02T13:09:43;17.48;;;2.83;;
66523;SDS011;53350;52.210;5.160;2023-02-02T13:12:17;12.23;;;2.20;;
66523;SDS011;53350;52.210;5.160;2023-02-02T13:14:48;9.85;;;2.50;;
66523;SDS011;53350;52.210;5.160;2023-02-02T13:17:21;10.45;;;1.92;;
66523;SDS011;53350;52.210;5.160;2023-02-02T13:19:53;15.93;;;2.50;;
66523;SDS011;53350;52.210;5.160;2023-02-02T13:22:23;10.38;;;2.00;;
66523;SDS011;53350;52.210;5.160;2023-02-02T13:24:54;13.57;;;2.40;;
66523;SDS011;53350;52.210;5.160;2023-02-02T13:27:24;12.30;;;1.85;;
66523;SDS011;53350;52.210;5.160;2023-02-02T13:29:54;11.27;;;2.17;;
66523;SDS011;53350;52.210;5.160;2023-02-02T13:32:25;9.32;;;1.80;;
66523;SDS011;53350;52.210;5.160;2023-02-02T13:34:56;12.63;;;1.80;;
66523;SDS011;53350;52.210;5.160;2023-02-02T13:37:29;6.45;;;1.83;;
66523;SDS011;53350;52.210;5.160;2023-02-02T13:40:03;5.55;;;1.60;;
66523;SDS011;53350;52.210;5.160;2023-02-02T13:42:41;7.50;;;1.40;;
66523;SDS011;53350;52.210;5.160;2023-02-02T13:45:30;7.82;;;1.55;;
66523;SDS011;53350;52.210;5.160;2023-02-02T13:48:07;6.03;;;1.00;;
66523;SDS011;53350;52.210;5.160;2023-02-02T13:50:44;5.60;;;1.38;;
66523;SDS011;53350;52.210;5.160;2023-02-02T13:56:02;1.25;;;0.52;;
66523;SDS011;53350;52.210;5.160;2023-02-02T13:58:49;3.60;;;0.88;;
66523;SDS011;53350;52.210;5.160;2023-02-02T14:01:40;4.75;;;1.27;;
66523;SDS011;53350;52.210;5.160;2023-02-02T14:04:16;1.50;;;0.73;;
66523;SDS011;53350;52.210;5.160;2023-02-02T14:06:50;3.70;;;0.90;;
66523;SDS011;53350;52.210;5.160;2023-02-02T14:09:24;3.75;;;1.30;;
66523;SDS011;53350;52.210;5.160;2023-02-02T14:11:54;1.83;;;0.82;;
66523;SDS011;53350;52.210;5.160;2023-02-02T14:14:23;3.72;;;1.00;;
66523;SDS011;53350;52.210;5.160;2023-02-02T14:17:02;7.97;;;1.13;;
66523;SDS011;53350;52.210;5.160;2023-02-02T14:19:48;3.55;;;1.00;;
66523;SDS011;53350;52.210;5.160;2023-02-02T14:22:17;3.70;;;1.00;;
66523;SDS011;53350;52.210;5.160;2023-02-02T14:25:06;3.22;;;1.20;;
66523;SDS011;53350;52.210;5.160;2023-02-02T14:28:08;6.30;;;1.70;;
66523;SDS011;53350;52.210;5.160;2023-02-02T14:30:36;5.55;;;1.08;;
66523;SDS011;53350;52.210;5.160;2023-02-02T14:33:25;3.25;;;1.23;;
66523;SDS011;53350;52.210;5.160;2023-02-02T14:36:03;5.80;;;1.20;;
66523;SDS011;53350;52.210;5.160;2023-02-02T14:38:35;4.85;;;1.23;;
66523;SDS011;53350;52.210;5.160;2023-02-02T14:41:21;4.43;;;1.38;;
66523;SDS011;53350;52.210;5.160;2023-02-02T14:44:14;6.72;;;1.60;;
66523;SDS011;53350;52.210;5.160;2023-02-02T14:46:41;9.18;;;1.88;;
66523;SDS011;53350;52.210;5.160;2023-02-02T14:49:17;7.20;;;1.73;;
66523;SDS011;53350;52.210;5.160;2023-02-02T14:51:50;5.18;;;1.40;;
66523;SDS011;53350;52.210;5.160;2023-02-02T14:54:24;6.50;;;1.70;;
66523;SDS011;53350;52.210;5.160;2023-02-02T14:57:03;9.95;;;1.73;;
66523;SDS011;53350;52.210;5.160;2023-02-02T14:59:45;7.68;;;1.90;;
66523;SDS011;53350;52.210;5.160;2023-02-02T15:02:14;10.07;;;2.30;;
66523;SDS011;53350;52.210;5.160;2023-02-02T15:04:44;12.13;;;1.90;;
66523;SDS011;53350;52.210;5.160;2023-02-02T15:10:02;5.25;;;2.25;;
66523;SDS011;53350;52.210;5.160;2023-02-02T15:12:33;10.90;;;2.30;;
66523;SDS011;53350;52.210;5.160;2023-02-02T15:15:07;11.38;;;2.28;;
66523;SDS011;53350;52.210;5.160;2023-02-02T15:17:43;10.90;;;2.20;;
66523;SDS011;53350;52.210;5.160;2023-02-02T15:20:19;11.05;;;2.17;;
66523;SDS011;53350;52.210;5.160;2023-02-02T15:22:52;9.00;;;2.05;;
66523;SDS011;53350;52.210;5.160;2023-02-02T15:25:23;13.25;;;2.15;;
66523;SDS011;53350;52.210;5.160;2023-02-02T15:27:56;11.25;;;2.53;;